sensor_id;sensor_type;location;lat;lon;timestamp;temperature;humidity
25188;DHT22;13141;50.414;8.050;2022-09-29T00:01:09;10.20;99.90
25188;DHT22;13141;50.414;8.050;2022-09-29T00:03:36;10.10;99.90
25188;DHT22;13141;50.414;8.050;2022-09-29T00:06:01;10.10;99.90
25188;DHT22;13141;50.414;8.050;2022-09-29T00:08:29;10.00;99.90
25188;DHT22;13141;50.414;8.050;2022-09-29T00:10:55;9.90;99.90
25188;DHT22;13141;50.414;8.050;2022-09-29T00:13:21;9.80;99.90
25188;DHT22;13141;50.414;8.050;2022-09-29T00:15:57;9.70;99.90
25188;DHT22;13141;50.414;8.050;2022-09-29T00:18:23;9.70;99.90
25188;DHT22;13141;50.414;8.050;2022-09-29T00:21:08;9.80;99.90
25188;DHT22;13141;50.414;8.050;2022-09-29T00:23:34;9.90;99.90
25188;DHT22;13141;50.414;8.050;2022-09-29T00:28:29;9.80;99.90
25188;DHT22;13141;50.414;8.050;2022-09-29T00:30:57;9.70;99.90
25188;DHT22;13141;50.414;8.050;2022-09-29T00:33:23;9.60;99.90
25188;DHT22;13141;50.414;8.050;2022-09-29T00:35:56;9.60;99.90
25188;DHT22;13141;50.414;8.050;2022-09-29T00:38:23;9.60;99.90
25188;DHT22;13141;50.414;8.050;2022-09-29T00:40:49;9.60;99.90
25188;DHT22;13141;50.414;8.050;2022-09-29T00:43:20;9.60;99.90
25188;DHT22;13141;50.414;8.050;2022-09-29T00:45:47;9.60;99.90
25188;DHT22;13141;50.414;8.050;2022-09-29T00:48:16;9.70;99.90
25188;DHT22;13141;50.414;8.050;2022-09-29T00:50:48;9.70;99.90
25188;DHT22;13141;50.414;8.050;2022-09-29T00:53:16;9.70;99.90
25188;DHT22;13141;50.414;8.050;2022-09-29T00:56:03;9.60;99.90
25188;DHT22;13141;50.414;8.050;2022-09-29T00:58:37;9.60;99.90
25188;DHT22;13141;50.414;8.050;2022-09-29T01:01:04;9.70;99.90
25188;DHT22;13141;50.414;8.050;2022-09-29T01:03:34;9.60;99.90
25188;DHT22;13141;50.414;8.050;2022-09-29T01:06:07;9.60;99.90
25188;DHT22;13141;50.414;8.050;2022-09-29T01:08:47;9.60;99.90
25188;DHT22;13141;50.414;8.050;2022-09-29T01:11:17;9.60;99.90
25188;DHT22;13141;50.414;8.050;2022-09-29T01:13:44;9.60;99.90
25188;DHT22;13141;50.414;8.050;2022-09-29T01:16:10;9.60;99.90
25188;DHT22;13141;50.414;8.050;2022-09-29T01:18:36;9.50;99.90
25188;DHT22;13141;50.414;8.050;2022-09-29T01:32:37;9.40;99.90
25188;DHT22;13141;50.414;8.050;2022-09-29T01:37:57;9.40;99.90
25188;DHT22;13141;50.414;8.050;2022-09-29T01:40:53;9.30;99.90
25188;DHT22;13141;50.414;8.050;2022-09-29T01:44:44;9.30;99.90
25188;DHT22;13141;50.414;8.050;2022-09-29T01:47:11;9.30;99.90
25188;DHT22;13141;50.414;8.050;2022-09-29T01:49:42;9.30;99.90
25188;DHT22;13141;50.414;8.050;2022-09-29T01:52:21;9.30;99.90
25188;DHT22;13141;50.414;8.050;2022-09-29T01:55:09;9.30;99.90
25188;DHT22;13141;50.414;8.050;2022-09-29T01:57:46;9.40;99.90
25188;DHT22;13141;50.414;8.050;2022-09-29T02:00:17;9.40;99.90
25188;DHT22;13141;50.414;8.050;2022-09-29T02:02:53;9.30;99.90
25188;DHT22;13141;50.414;8.050;2022-09-29T02:08:10;9.30;99.90
25188;DHT22;13141;50.414;8.050;2022-09-29T02:10:41;9.30;99.90
25188;DHT22;13141;50.414;8.050;2022-09-29T02:13:08;9.30;99.90
25188;DHT22;13141;50.414;8.050;2022-09-29T02:15:37;9.30;99.90
25188;DHT22;13141;50.414;8.050;2022-09-29T02:18:12;9.30;99.90
25188;DHT22;13141;50.414;8.050;2022-09-29T02:20:40;9.30;99.90
25188;DHT22;13141;50.414;8.050;2022-09-29T02:23:05;9.30;99.90
25188;DHT22;13141;50.414;8.050;2022-09-29T02:25:35;9.40;99.90
25188;DHT22;13141;50.414;8.050;2022-09-29T02:28:02;9.40;99.90
25188;DHT22;13141;50.414;8.050;2022-09-29T02:30:28;9.40;99.90
25188;DHT22;13141;50.414;8.050;2022-09-29T02:32:54;9.40;99.90
25188;DHT22;13141;50.414;8.050;2022-09-29T02:35:19;9.30;99.90
25188;DHT22;13141;50.414;8.050;2022-09-29T02:38:03;9.10;99.90
25188;DHT22;13141;50.414;8.050;2022-09-29T02:51:49;9.40;99.90
25188;DHT22;13141;50.414;8.050;2022-09-29T03:00:07;9.40;99.90
25188;DHT22;13141;50.414;8.050;2022-09-29T03:02:36;9.30;99.90
25188;DHT22;13141;50.414;8.050;2022-09-29T03:05:08;9.10;99.90
25188;DHT22;13141;50.414;8.050;2022-09-29T03:07:36;9.00;99.90
25188;DHT22;13141;50.414;8.050;2022-09-29T03:10:02;9.00;99.90
25188;DHT22;13141;50.414;8.050;2022-09-29T03:12:27;9.00;99.90
25188;DHT22;13141;50.414;8.050;2022-09-29T03:14:53;9.00;99.90
25188;DHT22;13141;50.414;8.050;2022-09-29T03:17:18;8.80;99.90
25188;DHT22;13141;50.414;8.050;2022-09-29T03:19:44;8.60;99.90
25188;DHT22;13141;50.414;8.050;2022-09-29T03:22:10;8.60;99.90
25188;DHT22;13141;50.414;8.050;2022-09-29T03:24:36;8.70;99.90
25188;DHT22;13141;50.414;8.050;2022-09-29T03:27:01;8.80;99.90
25188;DHT22;13141;50.414;8.050;2022-09-29T03:29:27;8.80;99.90
25188;DHT22;13141;50.414;8.050;2022-09-29T03:31:53;8.90;99.90
25188;DHT22;13141;50.414;8.050;2022-09-29T03:34:18;8.90;99.90
25188;DHT22;13141;50.414;8.050;2022-09-29T03:36:44;8.90;99.90
25188;DHT22;13141;50.414;8.050;2022-09-29T03:39:10;8.90;99.90
25188;DHT22;13141;50.414;8.050;2022-09-29T03:41:35;9.00;99.90
25188;DHT22;13141;50.414;8.050;2022-09-29T03:44:01;9.00;99.90
25188;DHT22;13141;50.414;8.050;2022-09-29T03:46:26;9.10;99.90
25188;DHT22;13141;50.414;8.050;2022-09-29T03:48:53;9.10;99.90
25188;DHT22;13141;50.414;8.050;2022-09-29T03:51:18;9.10;99.90
25188;DHT22;13141;50.414;8.050;2022-09-29T03:53:44;9.10;99.90
25188;DHT22;13141;50.414;8.050;2022-09-29T03:56:09;9.20;99.90
25188;DHT22;13141;50.414;8.050;2022-09-29T03:58:35;9.20;99.90
25188;DHT22;13141;50.414;8.050;2022-09-29T04:01:01;9.20;99.90
25188;DHT22;13141;50.414;8.050;2022-09-29T04:03:27;9.10;99.90
25188;DHT22;13141;50.414;8.050;2022-09-29T04:05:52;9.10;99.90
25188;DHT22;13141;50.414;8.050;2022-09-29T04:08:18;9.10;99.90
25188;DHT22;13141;50.414;8.050;2022-09-29T04:10:45;9.20;99.90
25188;DHT22;13141;50.414;8.050;2022-09-29T04:13:11;9.20;99.90
25188;DHT22;13141;50.414;8.050;2022-09-29T04:15:37;9.20;99.90
25188;DHT22;13141;50.414;8.050;2022-09-29T04:18:03;9.20;99.90
25188;DHT22;13141;50.414;8.050;2022-09-29T04:20:28;9.10;99.90
25188;DHT22;13141;50.414;8.050;2022-09-29T04:22:54;9.10;99.90
25188;DHT22;13141;50.414;8.050;2022-09-29T04:25:20;9.10;99.90
25188;DHT22;13141;50.414;8.050;2022-09-29T04:27:45;9.20;99.90
25188;DHT22;13141;50.414;8.050;2022-09-29T04:30:11;9.20;99.90
25188;DHT22;13141;50.414;8.050;2022-09-29T04:32:37;9.20;99.90
25188;DHT22;13141;50.414;8.050;2022-09-29T04:35:03;9.20;99.90
25188;DHT22;13141;50.414;8.050;2022-09-29T04:37:28;9.20;99.90
25188;DHT22;13141;50.414;8.050;2022-09-29T04:39:54;9.20;99.90
25188;DHT22;13141;50.414;8.050;2022-09-29T04:42:20;9.20;99.90
25188;DHT22;13141;50.414;8.050;2022-09-29T04:44:45;9.20;99.90
25188;DHT22;13141;50.414;8.050;2022-09-29T04:47:11;9.20;99.90
25188;DHT22;13141;50.414;8.050;2022-09-29T04:49:37;9.20;99.90
25188;DHT22;13141;50.414;8.050;2022-09-29T04:52:03;9.20;99.90
25188;DHT22;13141;50.414;8.050;2022-09-29T04:54:33;9.20;99.90
25188;DHT22;13141;50.414;8.050;2022-09-29T04:56:59;9.20;99.90
25188;DHT22;13141;50.414;8.050;2022-09-29T04:59:26;9.20;99.90
25188;DHT22;13141;50.414;8.050;2022-09-29T05:01:52;9.20;99.90
25188;DHT22;13141;50.414;8.050;2022-09-29T05:04:18;9.20;99.90
25188;DHT22;13141;50.414;8.050;2022-09-29T05:06:43;9.20;99.90
25188;DHT22;13141;50.414;8.050;2022-09-29T05:09:09;9.20;99.90
25188;DHT22;13141;50.414;8.050;2022-09-29T05:11:35;9.20;99.90
25188;DHT22;13141;50.414;8.050;2022-09-29T05:14:00;9.20;99.90
25188;DHT22;13141;50.414;8.050;2022-09-29T05:16:26;9.20;99.90
25188;DHT22;13141;50.414;8.050;2022-09-29T05:18:52;9.20;99.90
25188;DHT22;13141;50.414;8.050;2022-09-29T05:21:17;9.10;99.90
25188;DHT22;13141;50.414;8.050;2022-09-29T05:23:43;9.10;99.90
25188;DHT22;13141;50.414;8.050;2022-09-29T05:26:10;9.10;99.90
25188;DHT22;13141;50.414;8.050;2022-09-29T05:28:36;9.00;99.90
25188;DHT22;13141;50.414;8.050;2022-09-29T05:31:05;9.00;99.90
25188;DHT22;13141;50.414;8.050;2022-09-29T05:33:31;9.00;99.90
25188;DHT22;13141;50.414;8.050;2022-09-29T05:35:57;8.90;99.90
25188;DHT22;13141;50.414;8.050;2022-09-29T05:38:23;8.80;99.90
25188;DHT22;13141;50.414;8.050;2022-09-29T05:40:50;8.80;99.90
25188;DHT22;13141;50.414;8.050;2022-09-29T05:43:15;8.70;99.90
25188;DHT22;13141;50.414;8.050;2022-09-29T05:45:41;8.80;99.90
25188;DHT22;13141;50.414;8.050;2022-09-29T05:48:07;8.80;99.90
25188;DHT22;13141;50.414;8.050;2022-09-29T05:50:33;8.80;99.90
25188;DHT22;13141;50.414;8.050;2022-09-29T05:53:06;8.90;99.90
25188;DHT22;13141;50.414;8.050;2022-09-29T05:55:31;8.90;99.90
25188;DHT22;13141;50.414;8.050;2022-09-29T05:57:57;8.90;99.90
25188;DHT22;13141;50.414;8.050;2022-09-29T06:00:22;9.00;99.90
25188;DHT22;13141;50.414;8.050;2022-09-29T06:02:48;8.90;99.90
25188;DHT22;13141;50.414;8.050;2022-09-29T06:05:14;8.90;99.90
25188;DHT22;13141;50.414;8.050;2022-09-29T06:07:39;8.90;99.90
25188;DHT22;13141;50.414;8.050;2022-09-29T06:10:05;8.90;99.90
25188;DHT22;13141;50.414;8.050;2022-09-29T06:12:37;8.90;99.90
25188;DHT22;13141;50.414;8.050;2022-09-29T06:15:03;9.00;99.90
25188;DHT22;13141;50.414;8.050;2022-09-29T06:17:29;9.00;99.90
25188;DHT22;13141;50.414;8.050;2022-09-29T06:19:55;8.90;99.90
25188;DHT22;13141;50.414;8.050;2022-09-29T06:22:21;8.90;99.90
25188;DHT22;13141;50.414;8.050;2022-09-29T06:24:46;9.00;99.90
25188;DHT22;13141;50.414;8.050;2022-09-29T06:27:12;9.00;99.90
25188;DHT22;13141;50.414;8.050;2022-09-29T06:29:37;9.00;99.90
25188;DHT22;13141;50.414;8.050;2022-09-29T06:32:03;9.00;99.90
25188;DHT22;13141;50.414;8.050;2022-09-29T06:34:28;9.10;99.90
25188;DHT22;13141;50.414;8.050;2022-09-29T06:36:54;9.00;99.90
25188;DHT22;13141;50.414;8.050;2022-09-29T06:39:38;9.10;99.90
25188;DHT22;13141;50.414;8.050;2022-09-29T06:42:03;9.10;99.90
25188;DHT22;13141;50.414;8.050;2022-09-29T06:44:29;9.20;99.90
25188;DHT22;13141;50.414;8.050;2022-09-29T06:46:55;9.10;99.90
25188;DHT22;13141;50.414;8.050;2022-09-29T06:49:21;9.10;99.90
25188;DHT22;13141;50.414;8.050;2022-09-29T06:51:47;9.20;99.90
25188;DHT22;13141;50.414;8.050;2022-09-29T06:54:18;9.10;99.90
25188;DHT22;13141;50.414;8.050;2022-09-29T06:56:48;9.20;99.90
25188;DHT22;13141;50.414;8.050;2022-09-29T06:59:14;9.20;99.90
25188;DHT22;13141;50.414;8.050;2022-09-29T07:01:40;9.30;99.90
25188;DHT22;13141;50.414;8.050;2022-09-29T07:04:06;9.30;99.90
25188;DHT22;13141;50.414;8.050;2022-09-29T07:06:31;9.30;99.90
25188;DHT22;13141;50.414;8.050;2022-09-29T07:08:57;9.40;99.90
25188;DHT22;13141;50.414;8.050;2022-09-29T07:11:23;9.40;99.90
25188;DHT22;13141;50.414;8.050;2022-09-29T07:13:50;9.40;99.90
25188;DHT22;13141;50.414;8.050;2022-09-29T07:16:16;9.40;99.90
25188;DHT22;13141;50.414;8.050;2022-09-29T07:18:42;9.40;99.90
25188;DHT22;13141;50.414;8.050;2022-09-29T07:21:10;9.50;99.90
25188;DHT22;13141;50.414;8.050;2022-09-29T07:23:36;9.40;99.90
25188;DHT22;13141;50.414;8.050;2022-09-29T07:26:04;9.40;99.90
25188;DHT22;13141;50.414;8.050;2022-09-29T07:28:29;9.50;99.90
25188;DHT22;13141;50.414;8.050;2022-09-29T07:31:06;9.50;99.90
25188;DHT22;13141;50.414;8.050;2022-09-29T07:33:33;9.50;99.90
25188;DHT22;13141;50.414;8.050;2022-09-29T07:35:58;9.50;99.90
25188;DHT22;13141;50.414;8.050;2022-09-29T07:38:26;9.60;99.90
25188;DHT22;13141;50.414;8.050;2022-09-29T07:40:51;9.50;99.90
25188;DHT22;13141;50.414;8.050;2022-09-29T07:43:17;9.40;99.90
25188;DHT22;13141;50.414;8.050;2022-09-29T07:45:50;9.30;99.90
25188;DHT22;13141;50.414;8.050;2022-09-29T07:48:16;9.40;99.90
25188;DHT22;13141;50.414;8.050;2022-09-29T07:50:43;9.40;99.90
25188;DHT22;13141;50.414;8.050;2022-09-29T07:53:10;9.50;99.90
25188;DHT22;13141;50.414;8.050;2022-09-29T07:55:36;9.50;99.90
25188;DHT22;13141;50.414;8.050;2022-09-29T07:58:01;9.60;99.90
25188;DHT22;13141;50.414;8.050;2022-09-29T08:00:28;9.80;99.90
25188;DHT22;13141;50.414;8.050;2022-09-29T08:03:01;9.60;99.90
25188;DHT22;13141;50.414;8.050;2022-09-29T08:05:29;9.60;99.90
25188;DHT22;13141;50.414;8.050;2022-09-29T08:07:54;9.50;99.90
25188;DHT22;13141;50.414;8.050;2022-09-29T08:10:20;9.60;99.90
25188;DHT22;13141;50.414;8.050;2022-09-29T08:12:46;9.50;99.90
25188;DHT22;13141;50.414;8.050;2022-09-29T08:15:11;9.60;99.90
25188;DHT22;13141;50.414;8.050;2022-09-29T08:17:37;9.30;99.90
25188;DHT22;13141;50.414;8.050;2022-09-29T08:20:02;9.40;99.90
25188;DHT22;13141;50.414;8.050;2022-09-29T08:22:28;9.50;99.90
25188;DHT22;13141;50.414;8.050;2022-09-29T08:24:54;9.70;99.90
25188;DHT22;13141;50.414;8.050;2022-09-29T08:27:19;9.70;99.90
25188;DHT22;13141;50.414;8.050;2022-09-29T08:29:45;9.70;99.90
25188;DHT22;13141;50.414;8.050;2022-09-29T08:32:11;9.80;99.90
25188;DHT22;13141;50.414;8.050;2022-09-29T08:34:36;9.70;99.90
25188;DHT22;13141;50.414;8.050;2022-09-29T08:37:03;9.70;99.90
25188;DHT22;13141;50.414;8.050;2022-09-29T08:39:28;9.60;99.90
25188;DHT22;13141;50.414;8.050;2022-09-29T08:42:04;9.70;99.90
25188;DHT22;13141;50.414;8.050;2022-09-29T08:44:38;9.80;99.90
25188;DHT22;13141;50.414;8.050;2022-09-29T08:50:40;10.00;99.90
25188;DHT22;13141;50.414;8.050;2022-09-29T08:52:50;10.10;99.90
25188;DHT22;13141;50.414;8.050;2022-09-29T08:57:44;10.20;99.90
25188;DHT22;13141;50.414;8.050;2022-09-29T09:00:15;10.20;99.90
25188;DHT22;13141;50.414;8.050;2022-09-29T09:08:46;10.30;99.90
25188;DHT22;13141;50.414;8.050;2022-09-29T09:11:24;10.40;99.90
25188;DHT22;13141;50.414;8.050;2022-09-29T09:14:12;10.50;99.90
25188;DHT22;13141;50.414;8.050;2022-09-29T09:17:08;10.50;99.90
25188;DHT22;13141;50.414;8.050;2022-09-29T09:19:55;10.60;99.90
25188;DHT22;13141;50.414;8.050;2022-09-29T09:22:29;10.60;99.90
25188;DHT22;13141;50.414;8.050;2022-09-29T09:24:58;10.60;99.90
25188;DHT22;13141;50.414;8.050;2022-09-29T09:27:30;10.70;99.90
25188;DHT22;13141;50.414;8.050;2022-09-29T09:30:05;10.70;99.90
25188;DHT22;13141;50.414;8.050;2022-09-29T09:32:40;10.60;99.90
25188;DHT22;13141;50.414;8.050;2022-09-29T09:37:42;10.70;99.90
25188;DHT22;13141;50.414;8.050;2022-09-29T09:42:39;10.90;99.90
25188;DHT22;13141;50.414;8.050;2022-09-29T09:45:15;11.00;99.90
25188;DHT22;13141;50.414;8.050;2022-09-29T09:47:49;11.10;99.90
25188;DHT22;13141;50.414;8.050;2022-09-29T09:50:19;11.00;99.90
25188;DHT22;13141;50.414;8.050;2022-09-29T09:52:52;11.10;99.90
25188;DHT22;13141;50.414;8.050;2022-09-29T09:55:19;11.20;99.90
25188;DHT22;13141;50.414;8.050;2022-09-29T10:00:50;11.40;99.90
25188;DHT22;13141;50.414;8.050;2022-09-29T10:03:17;11.50;99.90
25188;DHT22;13141;50.414;8.050;2022-09-29T10:05:45;11.50;99.90
25188;DHT22;13141;50.414;8.050;2022-09-29T10:08:25;11.70;99.90
25188;DHT22;13141;50.414;8.050;2022-09-29T10:10:52;12.30;99.90
25188;DHT22;13141;50.414;8.050;2022-09-29T10:13:19;12.40;99.90
25188;DHT22;13141;50.414;8.050;2022-09-29T10:18:41;12.50;99.90
25188;DHT22;13141;50.414;8.050;2022-09-29T10:21:21;12.80;99.90
25188;DHT22;13141;50.414;8.050;2022-09-29T10:23:54;13.30;99.90
25188;DHT22;13141;50.414;8.050;2022-09-29T10:26:31;13.80;99.90
25188;DHT22;13141;50.414;8.050;2022-09-29T10:29:21;14.20;99.90
25188;DHT22;13141;50.414;8.050;2022-09-29T10:34:32;14.80;99.90
25188;DHT22;13141;50.414;8.050;2022-09-29T10:39:45;15.70;99.90
25188;DHT22;13141;50.414;8.050;2022-09-29T10:44:52;16.40;99.90
25188;DHT22;13141;50.414;8.050;2022-09-29T10:47:20;16.50;99.90
25188;DHT22;13141;50.414;8.050;2022-09-29T10:49:46;16.50;99.90
25188;DHT22;13141;50.414;8.050;2022-09-29T10:52:28;16.90;99.90
25188;DHT22;13141;50.414;8.050;2022-09-29T10:54:58;17.20;99.90
25188;DHT22;13141;50.414;8.050;2022-09-29T10:57:26;17.40;99.90
25188;DHT22;13141;50.414;8.050;2022-09-29T10:59:53;17.80;99.90
25188;DHT22;13141;50.414;8.050;2022-09-29T11:02:29;17.50;99.90
25188;DHT22;13141;50.414;8.050;2022-09-29T11:04:59;17.60;99.90
25188;DHT22;13141;50.414;8.050;2022-09-29T11:07:27;18.10;99.90
25188;DHT22;13141;50.414;8.050;2022-09-29T11:09:52;18.30;99.90
25188;DHT22;13141;50.414;8.050;2022-09-29T11:12:26;18.60;99.90
25188;DHT22;13141;50.414;8.050;2022-09-29T11:14:52;18.80;99.90
25188;DHT22;13141;50.414;8.050;2022-09-29T11:17:24;18.80;99.90
25188;DHT22;13141;50.414;8.050;2022-09-29T11:19:51;19.00;99.90
25188;DHT22;13141;50.414;8.050;2022-09-29T11:31:46;19.00;99.90
25188;DHT22;13141;50.414;8.050;2022-09-29T11:40:01;19.50;99.20
25188;DHT22;13141;50.414;8.050;2022-09-29T11:48:46;19.80;99.80
25188;DHT22;13141;50.414;8.050;2022-09-29T11:55:05;20.20;98.40
25188;DHT22;13141;50.414;8.050;2022-09-29T12:05:24;20.40;99.30
25188;DHT22;13141;50.414;8.050;2022-09-29T12:08:26;20.30;96.40
25188;DHT22;13141;50.414;8.050;2022-09-29T12:11:15;19.80;95.10
25188;DHT22;13141;50.414;8.050;2022-09-29T12:13:54;19.40;96.20
25188;DHT22;13141;50.414;8.050;2022-09-29T12:16:27;19.70;97.30
25188;DHT22;13141;50.414;8.050;2022-09-29T12:19:07;19.40;93.90
25188;DHT22;13141;50.414;8.050;2022-09-29T12:21:41;19.30;97.60
25188;DHT22;13141;50.414;8.050;2022-09-29T12:27:28;19.80;96.30
25188;DHT22;13141;50.414;8.050;2022-09-29T12:30:08;20.00;95.40
25188;DHT22;13141;50.414;8.050;2022-09-29T12:32:42;20.10;96.80
25188;DHT22;13141;50.414;8.050;2022-09-29T12:35:15;19.90;94.40
25188;DHT22;13141;50.414;8.050;2022-09-29T12:37:51;19.60;95.70
25188;DHT22;13141;50.414;8.050;2022-09-29T12:40:23;19.40;95.20
25188;DHT22;13141;50.414;8.050;2022-09-29T12:43:21;19.40;95.70
25188;DHT22;13141;50.414;8.050;2022-09-29T12:48:49;20.20;96.00
25188;DHT22;13141;50.414;8.050;2022-09-29T12:51:29;21.00;96.90
25188;DHT22;13141;50.414;8.050;2022-09-29T12:56:47;21.20;92.20
25188;DHT22;13141;50.414;8.050;2022-09-29T13:01:54;22.20;94.30
25188;DHT22;13141;50.414;8.050;2022-09-29T13:04:47;22.30;92.20
25188;DHT22;13141;50.414;8.050;2022-09-29T13:10:58;22.30;91.80
25188;DHT22;13141;50.414;8.050;2022-09-29T13:19:37;22.60;91.30
25188;DHT22;13141;50.414;8.050;2022-09-29T13:25:10;20.90;89.70
25188;DHT22;13141;50.414;8.050;2022-09-29T13:27:40;20.30;89.70
25188;DHT22;13141;50.414;8.050;2022-09-29T13:30:14;20.20;90.00
25188;DHT22;13141;50.414;8.050;2022-09-29T13:33:08;20.80;90.80
25188;DHT22;13141;50.414;8.050;2022-09-29T13:35:44;21.60;90.60
25188;DHT22;13141;50.414;8.050;2022-09-29T13:38:25;22.50;90.50
25188;DHT22;13141;50.414;8.050;2022-09-29T13:41:15;23.20;88.00
25188;DHT22;13141;50.414;8.050;2022-09-29T13:46:26;22.80;83.30
25188;DHT22;13141;50.414;8.050;2022-09-29T13:48:57;22.60;88.30
25188;DHT22;13141;50.414;8.050;2022-09-29T13:51:46;22.60;90.00
25188;DHT22;13141;50.414;8.050;2022-09-29T13:54:20;23.00;88.30
25188;DHT22;13141;50.414;8.050;2022-09-29T13:57:03;23.20;83.30
25188;DHT22;13141;50.414;8.050;2022-09-29T13:59:29;23.30;85.20
25188;DHT22;13141;50.414;8.050;2022-09-29T14:01:56;22.80;80.10
25188;DHT22;13141;50.414;8.050;2022-09-29T14:07:04;21.30;79.40
25188;DHT22;13141;50.414;8.050;2022-09-29T14:09:34;20.30;82.60
25188;DHT22;13141;50.414;8.050;2022-09-29T14:12:06;20.10;85.60
25188;DHT22;13141;50.414;8.050;2022-09-29T14:14:40;19.90;81.20
25188;DHT22;13141;50.414;8.050;2022-09-29T14:17:32;20.20;84.40
25188;DHT22;13141;50.414;8.050;2022-09-29T14:30:23;19.90;82.60
25188;DHT22;13141;50.414;8.050;2022-09-29T14:33:08;19.80;87.30
25188;DHT22;13141;50.414;8.050;2022-09-29T14:35:41;19.80;90.30
25188;DHT22;13141;50.414;8.050;2022-09-29T14:40:38;19.80;91.60
25188;DHT22;13141;50.414;8.050;2022-09-29T14:48:53;19.50;92.10
25188;DHT22;13141;50.414;8.050;2022-09-29T14:51:54;19.40;92.50
25188;DHT22;13141;50.414;8.050;2022-09-29T14:54:26;19.30;92.80
25188;DHT22;13141;50.414;8.050;2022-09-29T14:57:02;19.30;93.40
25188;DHT22;13141;50.414;8.050;2022-09-29T14:59:45;19.30;93.50
25188;DHT22;13141;50.414;8.050;2022-09-29T15:02:19;19.20;94.10
25188;DHT22;13141;50.414;8.050;2022-09-29T15:04:46;19.10;94.90
25188;DHT22;13141;50.414;8.050;2022-09-29T15:07:14;19.10;95.20
25188;DHT22;13141;50.414;8.050;2022-09-29T15:09:48;19.00;95.40
25188;DHT22;13141;50.414;8.050;2022-09-29T15:12:20;19.00;95.40
25188;DHT22;13141;50.414;8.050;2022-09-29T15:14:46;18.90;95.90
25188;DHT22;13141;50.414;8.050;2022-09-29T15:25:34;18.60;96.50
25188;DHT22;13141;50.414;8.050;2022-09-29T15:30:35;18.40;97.10
25188;DHT22;13141;50.414;8.050;2022-09-29T15:33:23;18.30;97.00
25188;DHT22;13141;50.414;8.050;2022-09-29T15:36:06;18.30;97.00
25188;DHT22;13141;50.414;8.050;2022-09-29T15:38:37;18.20;97.30
25188;DHT22;13141;50.414;8.050;2022-09-29T15:43:43;18.10;98.20
25188;DHT22;13141;50.414;8.050;2022-09-29T15:46:19;18.00;98.50
25188;DHT22;13141;50.414;8.050;2022-09-29T15:49:17;18.00;98.40
25188;DHT22;13141;50.414;8.050;2022-09-29T15:52:09;18.00;98.70
25188;DHT22;13141;50.414;8.050;2022-09-29T15:54:36;18.00;98.70
25188;DHT22;13141;50.414;8.050;2022-09-29T15:57:04;17.90;99.00
25188;DHT22;13141;50.414;8.050;2022-09-29T15:59:54;18.00;99.00
25188;DHT22;13141;50.414;8.050;2022-09-29T16:02:27;18.00;99.10
25188;DHT22;13141;50.414;8.050;2022-09-29T16:04:59;17.80;99.00
25188;DHT22;13141;50.414;8.050;2022-09-29T16:07:29;17.80;99.30
25188;DHT22;13141;50.414;8.050;2022-09-29T16:10:12;17.80;99.60
25188;DHT22;13141;50.414;8.050;2022-09-29T16:15:34;17.80;99.90
25188;DHT22;13141;50.414;8.050;2022-09-29T16:18:24;17.70;99.80
25188;DHT22;13141;50.414;8.050;2022-09-29T16:20:52;17.60;99.90
25188;DHT22;13141;50.414;8.050;2022-09-29T16:23:33;17.50;99.90
25188;DHT22;13141;50.414;8.050;2022-09-29T16:26:18;17.40;99.90
25188;DHT22;13141;50.414;8.050;2022-09-29T16:31:35;17.30;99.90
25188;DHT22;13141;50.414;8.050;2022-09-29T16:34:02;17.30;99.90
25188;DHT22;13141;50.414;8.050;2022-09-29T16:36:31;17.30;99.90
25188;DHT22;13141;50.414;8.050;2022-09-29T16:38:59;17.20;99.90
25188;DHT22;13141;50.414;8.050;2022-09-29T16:41:32;17.20;99.90
25188;DHT22;13141;50.414;8.050;2022-09-29T16:47:03;17.10;99.90
25188;DHT22;13141;50.414;8.050;2022-09-29T16:49:47;17.00;99.90
25188;DHT22;13141;50.414;8.050;2022-09-29T16:52:28;16.90;99.90
25188;DHT22;13141;50.414;8.050;2022-09-29T16:57:55;16.80;99.90
25188;DHT22;13141;50.414;8.050;2022-09-29T17:00:21;16.70;99.90
25188;DHT22;13141;50.414;8.050;2022-09-29T17:02:54;16.60;99.90
25188;DHT22;13141;50.414;8.050;2022-09-29T17:05:21;16.60;99.90
25188;DHT22;13141;50.414;8.050;2022-09-29T17:07:47;16.50;99.90
25188;DHT22;13141;50.414;8.050;2022-09-29T17:10:19;16.40;99.90
25188;DHT22;13141;50.414;8.050;2022-09-29T17:12:45;16.30;99.90
25188;DHT22;13141;50.414;8.050;2022-09-29T17:15:14;16.20;99.90
25188;DHT22;13141;50.414;8.050;2022-09-29T17:17:43;16.20;99.90
25188;DHT22;13141;50.414;8.050;2022-09-29T17:20:12;16.10;99.90
25188;DHT22;13141;50.414;8.050;2022-09-29T17:22:38;16.10;99.90
25188;DHT22;13141;50.414;8.050;2022-09-29T17:25:04;16.00;99.90
25188;DHT22;13141;50.414;8.050;2022-09-29T17:27:30;15.90;99.90
25188;DHT22;13141;50.414;8.050;2022-09-29T17:30:20;15.80;99.90
25188;DHT22;13141;50.414;8.050;2022-09-29T17:32:48;15.70;99.90
25188;DHT22;13141;50.414;8.050;2022-09-29T17:35:15;15.60;99.90
25188;DHT22;13141;50.414;8.050;2022-09-29T17:37:42;15.60;99.90
25188;DHT22;13141;50.414;8.050;2022-09-29T17:42:54;15.50;99.90
25188;DHT22;13141;50.414;8.050;2022-09-29T17:45:21;15.40;99.90
25188;DHT22;13141;50.414;8.050;2022-09-29T17:47:47;15.40;99.90
25188;DHT22;13141;50.414;8.050;2022-09-29T17:50:35;15.30;99.90
25188;DHT22;13141;50.414;8.050;2022-09-29T17:53:02;15.20;99.90
25188;DHT22;13141;50.414;8.050;2022-09-29T17:55:31;15.10;99.90
25188;DHT22;13141;50.414;8.050;2022-09-29T17:57:58;15.00;99.90
25188;DHT22;13141;50.414;8.050;2022-09-29T18:00:27;14.90;99.90
25188;DHT22;13141;50.414;8.050;2022-09-29T18:02:52;14.90;99.90
25188;DHT22;13141;50.414;8.050;2022-09-29T18:05:22;14.80;99.90
25188;DHT22;13141;50.414;8.050;2022-09-29T18:07:49;14.70;99.90
25188;DHT22;13141;50.414;8.050;2022-09-29T18:12:55;14.70;99.90
25188;DHT22;13141;50.414;8.050;2022-09-29T18:15:21;14.60;99.90
25188;DHT22;13141;50.414;8.050;2022-09-29T18:17:47;14.50;99.90
25188;DHT22;13141;50.414;8.050;2022-09-29T18:20:18;14.50;99.90
25188;DHT22;13141;50.414;8.050;2022-09-29T18:22:45;14.40;99.90
25188;DHT22;13141;50.414;8.050;2022-09-29T18:25:13;14.40;99.90
25188;DHT22;13141;50.414;8.050;2022-09-29T18:27:39;14.30;99.90
25188;DHT22;13141;50.414;8.050;2022-09-29T18:30:23;14.30;99.90
25188;DHT22;13141;50.414;8.050;2022-09-29T18:32:51;14.20;99.90
25188;DHT22;13141;50.414;8.050;2022-09-29T18:35:27;14.10;99.90
25188;DHT22;13141;50.414;8.050;2022-09-29T18:37:53;14.10;99.90
25188;DHT22;13141;50.414;8.050;2022-09-29T18:40:19;14.10;99.90
25188;DHT22;13141;50.414;8.050;2022-09-29T18:42:48;14.00;99.90
25188;DHT22;13141;50.414;8.050;2022-09-29T18:45:21;14.20;99.90
25188;DHT22;13141;50.414;8.050;2022-09-29T18:47:57;13.90;99.90
25188;DHT22;13141;50.414;8.050;2022-09-29T18:50:26;13.90;99.90
25188;DHT22;13141;50.414;8.050;2022-09-29T18:52:52;13.70;99.90
25188;DHT22;13141;50.414;8.050;2022-09-29T18:55:20;13.80;99.90
25188;DHT22;13141;50.414;8.050;2022-09-29T18:57:53;13.80;99.90